Time;durP1;ratioP1;P1;durP2;ratioP2;P2;SDS_P1;SDS_P2;PMS_P1;PMS_P2;Temp;Humidity;BMP_temperature;BMP_pressure;BME280_temperature;BME280_humidity;BME280_pressure;Samples;Min_cycle;Max_cycle;Signal;HPM_P1;HPM_P2
2021/10/17 00:02:23;;;;;;;6.65;2.55;;;10.00;99.90;;;;;;5027641;28;20026;-76
2021/10/17 00:04:48;;;;;;;3.80;1.63;;;10.00;99.90;;;;;;5027068;28;20085;-77
2021/10/17 00:07:14;;;;;;;4.20;1.73;;;10.00;99.90;;;;;;5026269;28;20045;-75
2021/10/17 00:09:41;;;;;;;3.55;1.40;;;10.00;99.90;;;;;;5027784;28;20049;-77
2021/10/17 00:12:09;;;;;;;6.13;1.67;;;10.00;99.90;;;;;;5025781;28;20034;-75
2021/10/17 00:14:34;;;;;;;3.85;1.70;;;10.00;99.90;;;;;;5027642;28;20026;-78
2021/10/17 00:17:01;;;;;;;2.97;1.48;;;10.00;99.90;;;;;;5027524;28;20017;-75
2021/10/17 00:19:27;;;;;;;5.93;1.95;;;10.00;99.90;;;;;;5025558;28;20022;-75
2021/10/17 00:21:52;;;;;;;11.15;1.55;;;9.90;99.90;;;;;;5027454;28;20025;-77
2021/10/17 00:24:18;;;;;;;6.72;1.65;;;9.90;99.90;;;;;;5025760;28;20030;-71
2021/10/17 00:26:44;;;;;;;10.75;2.40;;;9.90;99.90;;;;;;5026992;28;20174;-75
2021/10/17 00:29:09;;;;;;;4.18;2.03;;;9.90;99.90;;;;;;5027363;28;20109;-74
2021/10/17 00:31:35;;;;;;;10.43;2.33;;;9.90;99.90;;;;;;5025758;28;20033;-74
2021/10/17 00:34:01;;;;;;;3.53;1.98;;;9.90;99.90;;;;;;5026891;28;20048;-76
2021/10/17 00:36:27;;;;;;;8.68;2.42;;;9.90;99.90;;;;;;5027117;28;20279;-75
2021/10/17 00:38:53;;;;;;;5.72;2.30;;;9.90;99.90;;;;;;5026453;28;20033;-74
2021/10/17 00:41:19;;;;;;;5.82;1.15;;;9.90;99.90;;;;;;5025572;28;20091;-75
2021/10/17 00:43:46;;;;;;;7.13;1.60;;;9.90;99.90;;;;;;5026895;28;20061;-74
2021/10/17 00:46:19;;;;;;;5.90;1.73;;;9.90;99.90;;;;;;5026321;28;20057;-77
2021/10/17 00:48:45;;;;;;;9.90;2.13;;;9.90;99.90;;;;;;5025641;28;20036;-76
2021/10/17 00:51:11;;;;;;;3.42;1.70;;;9.90;99.90;;;;;;5025433;28;20112;-75
2021/10/17 00:53:37;;;;;;;2.40;1.25;;;9.90;99.90;;;;;;5026656;28;20018;-74
2021/10/17 00:56:03;;;;;;;6.32;1.92;;;9.90;99.90;;;;;;5025148;28;20034;-77
2021/10/17 00:58:29;;;;;;;4.07;1.73;;;9.90;99.90;;;;;;5024591;28;20037;-76
2021/10/17 01:00:54;;;;;;;4.47;2.08;;;9.90;99.90;;;;;;5024895;28;20029;-76
2021/10/17 01:03:20;;;;;;;4.95;1.98;;;9.90;99.90;;;;;;5026309;28;20040;-76
2021/10/17 01:05:47;;;;;;;9.55;2.33;;;9.90;99.90;;;;;;5026528;28;20041;-77
2021/10/17 01:08:13;;;;;;;5.32;2.20;;;9.90;99.90;;;;;;5026056;28;20029;-74
2021/10/17 01:10:39;;;;;;;2.90;1.55;;;9.90;99.90;;;;;;5026453;28;20026;-73
2021/10/17 01:13:04;;;;;;;5.85;1.20;;;9.80;99.90;;;;;;5026325;28;20026;-73
2021/10/17 01:15:30;;;;;;;5.68;2.17;;;10.00;99.90;;;;;;5025924;28;20120;-76
2021/10/17 01:17:56;;;;;;;3.22;1.55;;;9.90;99.90;;;;;;5026316;28;20048;-74
2021/10/17 01:20:22;;;;;;;5.13;1.75;;;9.90;99.90;;;;;;5026391;28;20033;-75
2021/10/17 01:22:49;;;;;;;5.78;1.92;;;9.90;99.90;;;;;;5025912;28;20037;-77
2021/10/17 01:25:15;;;;;;;7.13;1.75;;;9.90;99.90;;;;;;5024723;28;20037;-79
2021/10/17 01:27:41;;;;;;;4.93;1.67;;;9.90;99.90;;;;;;5024607;28;20121;-73
2021/10/17 01:30:08;;;;;;;4.18;1.33;;;9.90;99.90;;;;;;5024735;28;20022;-75
2021/10/17 01:32:34;;;;;;;4.07;1.75;;;9.90;99.90;;;;;;5024649;28;20057;-75
2021/10/17 01:34:59;;;;;;;3.55;1.85;;;9.90;99.90;;;;;;5026261;28;20022;-76
2021/10/17 01:37:25;;;;;;;10.40;2.28;;;9.90;99.90;;;;;;5024498;28;20030;-76
2021/10/17 01:39:51;;;;;;;6.88;2.33;;;9.90;99.90;;;;;;5026491;28;20036;-74
2021/10/17 01:42:16;;;;;;;4.35;1.85;;;9.90;99.90;;;;;;5024501;28;20030;-76
2021/10/17 01:44:42;;;;;;;6.53;1.60;;;9.80;99.90;;;;;;5024320;28;20042;-76
2021/10/17 01:47:08;;;;;;;8.30;1.65;;;10.00;99.90;;;;;;5024564;28;20124;-73
2021/10/17 01:49:35;;;;;;;9.95;1.35;;;9.90;99.90;;;;;;5025837;28;20030;-76
2021/10/17 01:52:01;;;;;;;3.70;1.70;;;9.90;99.90;;;;;;5024728;28;20018;-78
2021/10/17 01:54:27;;;;;;;8.85;2.00;;;9.90;99.90;;;;;;5025665;28;20499;-75
2021/10/17 01:56:52;;;;;;;7.15;1.80;;;9.90;99.90;;;;;;5025342;28;20053;-75
2021/10/17 01:59:18;;;;;;;5.20;1.48;;;9.90;99.90;;;;;;5025270;28;20053;-75
2021/10/17 02:01:44;;;;;;;7.68;3.47;;;9.90;99.90;;;;;;5024016;28;20026;-72
2021/10/17 02:04:10;;;;;;;6.07;1.95;;;9.90;99.90;;;;;;5025413;28;20083;-78
2021/10/17 02:06:36;;;;;;;7.10;1.60;;;9.90;99.90;;;;;;5023954;28;20053;-76
2021/10/17 02:09:02;;;;;;;3.72;1.80;;;9.90;99.90;;;;;;5025259;28;20034;-77
2021/10/17 02:11:29;;;;;;;4.82;2.17;;;9.90;99.90;;;;;;5024679;28;20056;-73
2021/10/17 02:13:54;;;;;;;6.70;2.47;;;9.90;99.90;;;;;;5023685;28;20033;-73
2021/10/17 02:16:20;;;;;;;8.10;2.00;;;9.80;99.90;;;;;;5025287;28;20081;-75
2021/10/17 02:18:46;;;;;;;4.85;1.55;;;9.90;99.90;;;;;;5025047;28;20065;-73
2021/10/17 02:21:11;;;;;;;11.15;2.40;;;9.90;99.90;;;;;;5024962;28;20049;-75
2021/10/17 02:23:37;;;;;;;4.20;1.88;;;9.90;99.90;;;;;;5025466;28;20425;-76
2021/10/17 02:26:03;;;;;;;8.32;2.13;;;9.90;99.90;;;;;;5024652;28;20045;-78
2021/10/17 02:28:30;;;;;;;9.45;2.10;;;9.90;99.90;;;;;;5024919;28;20073;-74
2021/10/17 02:30:55;;;;;;;4.43;2.20;;;9.90;99.90;;;;;;5024943;28;20040;-77
2021/10/17 02:33:22;;;;;;;8.10;2.10;;;9.90;99.90;;;;;;5024697;28;20053;-77
2021/10/17 02:35:47;;;;;;;6.82;2.13;;;9.90;99.90;;;;;;5024834;28;20057;-75
2021/10/17 02:38:13;;;;;;;6.45;2.10;;;9.90;99.90;;;;;;5025004;28;20137;-76
2021/10/17 02:40:38;;;;;;;8.57;2.30;;;9.90;99.90;;;;;;5024707;28;20072;-78
2021/10/17 02:43:05;;;;;;;8.57;2.33;;;9.90;99.90;;;;;;5024664;28;20089;-75
2021/10/17 02:45:31;;;;;;;9.27;2.55;;;9.90;99.90;;;;;;5023822;28;20046;-72
2021/10/17 02:47:56;;;;;;;11.80;2.88;;;9.90;99.90;;;;;;5024437;28;20041;-76
2021/10/17 02:50:22;;;;;;;11.13;3.33;;;9.90;99.90;;;;;;5024785;28;20030;-74
2021/10/17 02:52:48;;;;;;;5.50;2.00;;;9.90;99.90;;;;;;5024670;28;20462;-77
2021/10/17 02:55:14;;;;;;;4.97;1.55;;;9.90;99.90;;;;;;5024431;28;20474;-77
2021/10/17 02:57:40;;;;;;;4.65;2.00;;;9.90;99.90;;;;;;5023253;28;20064;-78
2021/10/17 03:00:06;;;;;;;11.98;3.17;;;9.90;99.90;;;;;;5024920;28;20022;-77
2021/10/17 03:02:32;;;;;;;4.15;2.17;;;9.80;99.90;;;;;;5025892;28;20490;-79
2021/10/17 03:04:57;;;;;;;6.78;2.42;;;9.90;99.90;;;;;;5028749;28;20040;-75
2021/10/17 03:07:23;;;;;;;5.18;2.15;;;9.90;99.90;;;;;;5028536;28;20052;-76
2021/10/17 03:09:49;;;;;;;5.68;2.42;;;9.90;99.90;;;;;;5028219;28;20463;-76
2021/10/17 03:12:14;;;;;;;15.90;2.25;;;9.80;99.90;;;;;;5028606;28;20034;-77
2021/10/17 03:14:40;;;;;;;5.43;2.05;;;9.90;99.90;;;;;;5027437;28;20026;-75
2021/10/17 03:17:06;;;;;;;6.72;2.13;;;9.90;99.90;;;;;;5027008;28;20089;-74
2021/10/17 03:19:32;;;;;;;8.43;1.77;;;9.80;99.90;;;;;;5028345;28;20041;-76
2021/10/17 03:21:58;;;;;;;5.30;2.65;;;9.90;99.90;;;;;;5028261;28;20070;-77
2021/10/17 03:24:24;;;;;;;7.50;2.55;;;9.90;99.90;;;;;;5026969;28;20030;-76
2021/10/17 03:26:50;;;;;;;3.85;2.30;;;9.90;99.90;;;;;;5026772;28;20045;-77
2021/10/17 03:29:15;;;;;;;5.53;2.20;;;9.90;99.90;;;;;;5026447;28;20509;-77
2021/10/17 03:31:42;;;;;;;4.03;2.13;;;9.90;99.90;;;;;;5028536;28;20038;-76
2021/10/17 03:34:09;;;;;;;5.68;2.80;;;9.90;99.90;;;;;;5028406;28;20458;-76
2021/10/17 03:36:34;;;;;;;6.47;1.98;;;9.90;99.90;;;;;;5027937;28;20109;-77
2021/10/17 03:39:00;;;;;;;12.13;2.75;;;9.90;99.90;;;;;;5028278;28;20454;-73
2021/10/17 03:41:26;;;;;;;5.78;2.40;;;9.90;99.90;;;;;;5026657;28;20493;-75
2021/10/17 03:43:51;;;;;;;12.45;2.28;;;9.90;99.90;;;;;;5027526;28;20390;-74
2021/10/17 03:46:19;;;;;;;5.25;2.38;;;9.90;99.90;;;;;;5026617;28;20057;-75
2021/10/17 03:48:45;;;;;;;14.30;2.60;;;9.90;99.90;;;;;;5028344;28;20029;-75
2021/10/17 03:51:11;;;;;;;7.88;2.75;;;9.90;99.90;;;;;;5028463;28;20088;-78
2021/10/17 03:53:37;;;;;;;8.90;2.85;;;9.80;99.90;;;;;;5026769;28;20490;-77
2021/10/17 03:56:03;;;;;;;18.75;3.42;;;9.80;99.90;;;;;;5027749;28;20034;-74
2021/10/17 03:58:29;;;;;;;5.22;2.58;;;9.90;99.90;;;;;;5027518;28;20026;-74
2021/10/17 04:00:55;;;;;;;9.30;3.25;;;9.80;99.90;;;;;;5026277;28;20033;-75
2021/10/17 04:03:21;;;;;;;6.85;2.53;;;9.80;99.90;;;;;;5025902;28;20089;-76
2021/10/17 04:05:47;;;;;;;7.32;2.58;;;9.80;99.90;;;;;;5026369;28;20429;-75
2021/10/17 04:08:15;;;;;;;10.35;3.22;;;9.80;99.90;;;;;;5027740;28;20030;-77
2021/10/17 04:10:41;;;;;;;8.70;2.78;;;9.80;99.90;;;;;;5027096;28;20052;-77
2021/10/17 04:13:07;;;;;;;4.97;2.42;;;9.80;99.90;;;;;;5026082;28;20026;-77
2021/10/17 04:15:36;;;;;;;15.75;3.88;;;9.80;99.90;;;;;;5027069;28;20038;-77
2021/10/17 04:18:03;;;;;;;7.20;2.30;;;9.80;99.90;;;;;;5027012;28;20018;-78
2021/10/17 04:20:29;;;;;;;7.47;3.05;;;9.80;99.90;;;;;;5026085;28;20118;-77
2021/10/17 04:22:54;;;;;;;10.27;2.05;;;9.80;99.90;;;;;;5027375;28;20033;-77
2021/10/17 04:25:20;;;;;;;8.43;3.30;;;9.80;99.90;;;;;;5026668;28;20026;-78
2021/10/17 04:27:47;;;;;;;6.47;2.55;;;9.80;99.90;;;;;;5027260;28;20092;-76
2021/10/17 04:30:12;;;;;;;13.98;2.65;;;9.80;99.90;;;;;;5027356;28;20029;-77
2021/10/17 04:32:40;;;;;;;11.00;3.13;;;9.80;99.90;;;;;;5026991;28;20049;-76
2021/10/17 04:35:08;;;;;;;8.43;2.22;;;9.80;99.90;;;;;;5025948;28;20053;-77
2021/10/17 04:37:34;;;;;;;6.13;2.13;;;9.80;99.90;;;;;;5026772;28;20022;-77
2021/10/17 04:40:00;;;;;;;8.63;3.38;;;9.80;99.90;;;;;;5025670;28;20022;-77
2021/10/17 04:42:26;;;;;;;7.65;3.15;;;9.80;99.90;;;;;;5026855;28;20057;-77
2021/10/17 04:44:51;;;;;;;14.95;3.67;;;9.80;99.90;;;;;;5026357;28;20033;-77
2021/10/17 04:47:17;;;;;;;7.15;2.58;;;9.80;99.90;;;;;;5025275;28;20042;-74
2021/10/17 04:49:43;;;;;;;4.53;2.50;;;9.80;99.90;;;;;;5026946;28;20026;-77
2021/10/17 04:52:09;;;;;;;8.32;2.85;;;9.80;99.90;;;;;;5025118;28;20030;-78
2021/10/17 04:54:34;;;;;;;6.47;2.72;;;9.80;99.90;;;;;;5025977;28;20523;-78
2021/10/17 04:57:00;;;;;;;5.15;2.70;;;9.80;99.90;;;;;;5025184;28;20434;-77
2021/10/17 04:59:28;;;;;;;12.25;2.65;;;9.80;99.90;;;;;;5026050;28;20386;-79
2021/10/17 05:01:54;;;;;;;7.00;3.22;;;9.80;99.90;;;;;;5026674;28;20030;-77
2021/10/17 05:04:20;;;;;;;5.82;2.75;;;9.80;99.90;;;;;;5026399;28;20021;-75
2021/10/17 05:06:45;;;;;;;14.52;3.63;;;9.80;99.90;;;;;;5024653;28;20041;-78
2021/10/17 05:09:11;;;;;;;4.28;2.53;;;9.80;99.90;;;;;;5025200;28;20105;-78
2021/10/17 05:11:37;;;;;;;6.65;3.00;;;9.80;99.90;;;;;;5026325;28;20028;-74
2021/10/17 05:14:03;;;;;;;8.00;3.22;;;9.80;99.90;;;;;;5026043;28;20520;-78
2021/10/17 05:16:30;;;;;;;13.35;3.47;;;9.80;99.90;;;;;;5026474;28;20049;-77
2021/10/17 05:18:55;;;;;;;19.52;3.92;;;9.70;99.90;;;;;;5026320;28;20485;-76
2021/10/17 05:21:21;;;;;;;13.70;3.55;;;9.80;99.90;;;;;;5025723;28;20083;-76
2021/10/17 05:23:47;;;;;;;7.05;3.13;;;9.80;99.90;;;;;;5026134;28;20021;-78
2021/10/17 05:26:12;;;;;;;4.63;2.65;;;9.80;99.90;;;;;;5023442;28;20048;-75
2021/10/17 05:28:38;;;;;;;12.88;3.63;;;9.80;99.90;;;;;;5026132;28;20029;-77
2021/10/17 05:31:04;;;;;;;13.45;3.05;;;9.80;99.90;;;;;;5026158;28;20110;-74
2021/10/17 05:33:30;;;;;;;11.68;3.78;;;9.80;99.90;;;;;;5025649;28;20029;-78
2021/10/17 05:35:57;;;;;;;11.20;3.67;;;9.70;99.90;;;;;;5025951;28;20034;-76
2021/10/17 05:38:22;;;;;;;7.03;3.03;;;9.70;99.90;;;;;;5025830;28;20018;-75
2021/10/17 05:40:48;;;;;;;8.55;4.07;;;9.70;99.90;;;;;;5024260;28;20030;-76
2021/10/17 05:43:20;;;;;;;11.25;3.33;;;9.60;99.90;;;;;;5024440;28;20026;-77
2021/10/17 05:45:46;;;;;;;6.35;2.72;;;9.60;99.90;;;;;;5025242;28;20050;-77
2021/10/17 05:48:11;;;;;;;8.75;3.38;;;9.50;99.90;;;;;;5025767;28;20030;-76
2021/10/17 05:50:37;;;;;;;8.95;3.28;;;9.60;99.90;;;;;;5025971;28;20474;-76
2021/10/17 05:53:03;;;;;;;8.05;3.15;;;9.50;99.90;;;;;;5025412;28;20030;-75
2021/10/17 05:55:28;;;;;;;8.15;3.35;;;9.50;99.90;;;;;;5024197;28;20563;-75
2021/10/17 05:57:54;;;;;;;14.20;3.50;;;9.50;99.90;;;;;;5025537;28;20030;-76
2021/10/17 06:00:21;;;;;;;15.00;3.47;;;9.50;99.90;;;;;;5024254;28;20030;-75
2021/10/17 06:02:46;;;;;;;8.25;3.20;;;9.60;99.90;;;;;;5026116;28;20029;-75
2021/10/17 06:05:12;;;;;;;10.95;3.15;;;9.60;99.90;;;;;;5025950;28;20030;-77
2021/10/17 06:07:38;;;;;;;8.63;4.20;;;9.60;99.90;;;;;;5022253;28;20045;-76
2021/10/17 06:10:08;;;;;;;11.73;3.78;;;9.60;99.90;;;;;;5024000;28;20049;-74
2021/10/17 06:12:39;;;;;;;12.80;4.05;;;9.60;99.90;;;;;;5019689;28;20057;-76
2021/10/17 06:15:07;;;;;;;5.95;3.25;;;9.60;99.90;;;;;;5014400;28;20037;-74
2021/10/17 06:17:42;;;;;;;18.45;2.90;;;9.60;99.90;;;;;;5015776;28;20038;-76
2021/10/17 06:20:08;;;;;;;9.95;4.05;;;9.60;99.90;;;;;;5021193;28;20030;-75
2021/10/17 06:22:34;;;;;;;8.10;3.50;;;9.60;99.90;;;;;;5009346;28;20070;-72
2021/10/17 06:25:00;;;;;;;6.95;3.10;;;9.70;99.90;;;;;;5020149;28;20033;-76
2021/10/17 06:27:25;;;;;;;18.48;4.22;;;9.70;99.90;;;;;;5024801;28;20041;-77
2021/10/17 06:29:51;;;;;;;10.35;3.50;;;9.60;99.90;;;;;;5038791;28;20030;-78
2021/10/17 06:32:16;;;;;;;7.25;3.70;;;9.70;99.90;;;;;;5021978;28;20077;-74
2021/10/17 06:34:42;;;;;;;9.75;3.95;;;9.70;99.90;;;;;;5024939;28;20029;-78
2021/10/17 06:37:08;;;;;;;11.88;3.38;;;9.70;99.90;;;;;;5021801;28;20030;-75
2021/10/17 06:39:35;;;;;;;7.72;3.13;;;9.80;99.90;;;;;;5023032;28;20034;-77
2021/10/17 06:42:01;;;;;;;12.07;3.88;;;9.70;99.90;;;;;;5030461;28;20115;-76
2021/10/17 06:44:27;;;;;;;15.52;3.70;;;9.80;99.90;;;;;;5018304;28;20775;-77
2021/10/17 06:46:54;;;;;;;7.10;3.55;;;9.80;99.90;;;;;;5018519;28;20061;-76
2021/10/17 06:49:21;;;;;;;9.77;3.70;;;9.80;99.90;;;;;;5015714;28;20072;-77
2021/10/17 06:51:47;;;;;;;11.52;3.10;;;9.90;99.90;;;;;;5021217;28;20059;-77
2021/10/17 06:54:12;;;;;;;8.95;3.58;;;9.90;99.90;;;;;;5019120;28;20459;-77
2021/10/17 06:56:38;;;;;;;8.73;3.25;;;9.90;99.90;;;;;;5004973;28;20030;-75
2021/10/17 06:59:04;;;;;;;11.18;3.97;;;9.90;99.90;;;;;;5003319;28;20027;-76
2021/10/17 07:01:30;;;;;;;9.80;3.78;;;9.90;99.90;;;;;;5014979;28;20038;-75
2021/10/17 07:03:55;;;;;;;11.13;3.85;;;10.00;99.90;;;;;;5023831;28;20525;-76
2021/10/17 07:06:21;;;;;;;12.80;4.53;;;10.00;99.90;;;;;;5023925;28;20502;-74
2021/10/17 07:08:47;;;;;;;10.40;4.07;;;10.00;99.90;;;;;;5024272;28;20453;-75
2021/10/17 07:11:13;;;;;;;8.82;3.67;;;10.00;99.90;;;;;;5024691;28;20091;-75
2021/10/17 07:13:41;;;;;;;5.50;3.13;;;10.00;99.90;;;;;;5023246;28;20076;-75
2021/10/17 07:16:06;;;;;;;14.80;3.95;;;10.10;99.90;;;;;;5024486;28;20077;-76
2021/10/17 07:18:32;;;;;;;7.95;4.15;;;10.10;99.90;;;;;;5021742;28;20025;-76
2021/10/17 07:20:58;;;;;;;12.27;3.50;;;10.10;99.90;;;;;;5022479;28;20034;-74
2021/10/17 07:23:23;;;;;;;11.15;3.75;;;10.20;99.90;;;;;;5023016;28;20126;-72
2021/10/17 07:25:49;;;;;;;11.18;4.07;;;10.20;99.90;;;;;;5024074;28;20061;-77
2021/10/17 07:28:14;;;;;;;5.85;2.95;;;10.20;99.90;;;;;;5024570;28;20026;-77
2021/10/17 07:30:40;;;;;;;8.95;3.45;;;10.20;99.90;;;;;;5025227;28;20037;-76
2021/10/17 07:33:06;;;;;;;11.23;3.58;;;10.20;99.90;;;;;;5023948;28;20053;-76
2021/10/17 07:35:31;;;;;;;7.95;3.25;;;10.20;99.90;;;;;;5024914;28;20025;-72
2021/10/17 07:37:58;;;;;;;8.55;3.28;;;10.20;99.90;;;;;;5024632;28;20033;-74
2021/10/17 07:40:24;;;;;;;16.23;3.55;;;10.20;99.90;;;;;;5024523;28;20022;-75
2021/10/17 07:42:50;;;;;;;11.50;3.83;;;10.30;99.90;;;;;;5024058;28;20072;-74
2021/10/17 07:45:16;;;;;;;8.50;4.20;;;10.30;99.90;;;;;;5024781;28;20050;-74
2021/10/17 07:47:42;;;;;;;14.85;4.50;;;10.30;99.90;;;;;;5024069;28;20041;-74
2021/10/17 07:50:09;;;;;;;12.95;3.88;;;10.40;99.90;;;;;;5027591;28;20136;-74
2021/10/17 07:52:36;;;;;;;8.45;4.10;;;10.40;99.90;;;;;;5042472;28;20037;-75
2021/10/17 07:55:03;;;;;;;11.43;3.92;;;10.50;99.90;;;;;;5026137;28;20041;-72
2021/10/17 07:57:28;;;;;;;5.55;3.10;;;10.50;99.90;;;;;;5026209;28;20042;-77
2021/10/17 07:59:54;;;;;;;9.35;3.17;;;10.50;99.90;;;;;;5028468;28;20049;-75
2021/10/17 08:02:23;;;;;;;7.70;3.83;;;10.60;99.90;;;;;;5027462;28;20026;-73
2021/10/17 08:04:49;;;;;;;20.40;4.78;;;10.60;99.90;;;;;;5027351;28;20123;-77
2021/10/17 08:07:17;;;;;;;9.30;3.97;;;10.60;99.90;;;;;;5027052;28;20042;-75
2021/10/17 08:09:45;;;;;;;10.95;3.47;;;10.60;99.90;;;;;;5042707;28;20038;-76
2021/10/17 08:12:23;;;;;;;28.45;9.45;;;10.60;99.90;;;;;;5043488;28;20033;-76
2021/10/17 08:14:49;;;;;;;14.40;5.47;;;10.60;99.90;;;;;;5027779;28;20029;-75
2021/10/17 08:17:14;;;;;;;10.43;4.07;;;10.60;99.90;;;;;;5028130;28;20443;-75
2021/10/17 08:19:40;;;;;;;7.80;3.47;;;10.60;99.90;;;;;;5027856;28;20034;-75
2021/10/17 08:22:05;;;;;;;6.60;3.53;;;10.60;99.90;;;;;;5022756;28;20049;-75
2021/10/17 08:24:31;;;;;;;11.40;2.92;;;10.60;99.90;;;;;;5022140;28;20050;-75
2021/10/17 08:26:56;;;;;;;5.20;2.88;;;10.60;99.90;;;;;;5020888;28;20053;-74
2021/10/17 08:29:22;;;;;;;6.85;2.58;;;10.70;99.90;;;;;;5022880;28;20064;-75
2021/10/17 08:31:47;;;;;;;9.30;2.83;;;10.70;99.90;;;;;;5027216;28;20089;-76
2021/10/17 08:34:13;;;;;;;11.38;4.07;;;10.70;99.90;;;;;;5024401;28;20025;-74
2021/10/17 08:36:41;;;;;;;10.70;3.58;;;10.90;99.90;;;;;;5019920;28;20050;-75
2021/10/17 08:39:07;;;;;;;7.03;2.67;;;10.90;99.90;;;;;;5013408;28;20100;-72
2021/10/17 08:41:33;;;;;;;6.63;3.67;;;11.00;99.90;;;;;;5040028;28;20490;-75
2021/10/17 08:44:08;;;;;;;6.95;3.25;;;11.10;99.90;;;;;;5026274;28;20628;-77
2021/10/17 08:46:34;;;;;;;10.50;5.10;;;11.20;99.90;;;;;;5018171;28;20141;-74
2021/10/17 08:49:00;;;;;;;31.83;9.23;;;11.30;99.90;;;;;;5024465;28;20042;-74
2021/10/17 08:51:27;;;;;;;8.60;3.58;;;11.40;99.90;;;;;;5021633;28;20033;-74
2021/10/17 08:53:53;;;;;;;7.07;3.78;;;11.40;99.90;;;;;;5038119;28;20112;-74
2021/10/17 08:56:21;;;;;;;14.27;4.63;;;11.40;99.90;;;;;;5023420;28;20363;-77
2021/10/17 08:58:47;;;;;;;8.50;3.45;;;11.50;99.90;;;;;;5013192;28;20030;-72
2021/10/17 09:01:18;;;;;;;7.75;3.75;;;11.50;99.90;;;;;;5017121;28;20069;-76
2021/10/17 09:03:55;;;;;;;6.90;3.40;;;11.50;99.90;;;;;;5016920;28;20034;-78
2021/10/17 09:06:24;;;;;;;11.23;3.80;;;11.50;99.90;;;;;;5013180;28;20049;-77
2021/10/17 09:09:13;;;;;;;10.35;3.30;;;11.50;99.90;;;;;;5016153;28;20022;-76
2021/10/17 09:11:48;;;;;;;8.23;3.20;;;11.60;99.90;;;;;;5015673;28;20035;-74
2021/10/17 09:14:20;;;;;;;11.48;3.90;;;11.60;99.90;;;;;;5016478;28;20026;-75
2021/10/17 09:16:49;;;;;;;5.90;2.90;;;11.60;99.90;;;;;;5013354;28;20026;-72
2021/10/17 09:19:24;;;;;;;9.32;3.38;;;11.70;99.90;;;;;;5018898;28;20030;-75
2021/10/17 09:22:05;;;;;;;7.25;2.97;;;11.70;99.90;;;;;;5017384;28;20046;-73
2021/10/17 09:24:33;;;;;;;7.55;2.35;;;11.70;99.90;;;;;;5019207;28;20038;-73
2021/10/17 09:27:23;;;;;;;8.77;2.40;;;11.70;99.90;;;;;;5017480;28;20044;-71
2021/10/17 09:29:52;;;;;;;8.18;3.20;;;11.70;99.90;;;;;;5020267;28;20038;-73
2021/10/17 09:32:25;;;;;;;8.35;2.83;;;11.70;99.90;;;;;;5022203;28;20026;-74
2021/10/17 09:35:05;;;;;;;11.13;3.23;;;11.70;99.90;;;;;;5018975;28;20022;-73
2021/10/17 09:37:33;;;;;;;4.03;2.55;;;11.70;99.90;;;;;;5015798;28;20022;-74
2021/10/17 09:40:09;;;;;;;8.25;3.78;;;11.80;99.90;;;;;;5022329;28;20050;-73
2021/10/17 09:42:41;;;;;;;28.05;8.55;;;11.80;99.90;;;;;;5021784;28;20021;-73
2021/10/17 09:45:24;;;;;;;8.90;3.15;;;11.80;99.90;;;;;;5045167;28;20022;-73
2021/10/17 09:47:50;;;;;;;10.18;4.50;;;11.90;99.90;;;;;;5016888;28;20068;-74
2021/10/17 09:50:19;;;;;;;11.90;5.20;;;11.90;99.90;;;;;;5025080;28;20022;-73
2021/10/17 09:52:53;;;;;;;11.73;4.25;;;12.00;99.90;;;;;;5024685;28;20037;-75
2021/10/17 09:55:19;;;;;;;7.53;2.95;;;12.00;99.90;;;;;;5024173;28;20037;-75
2021/10/17 09:57:46;;;;;;;15.98;3.90;;;12.00;99.90;;;;;;5022743;28;20046;-75
2021/10/17 10:00:13;;;;;;;8.05;4.13;;;12.00;99.90;;;;;;5042559;28;20060;-75
2021/10/17 10:02:41;;;;;;;6.45;3.40;;;12.00;99.90;;;;;;5022812;28;20029;-74
2021/10/17 10:05:08;;;;;;;8.77;3.92;;;12.00;99.90;;;;;;5022198;28;20760;-74
2021/10/17 10:07:34;;;;;;;9.88;4.07;;;12.00;99.90;;;;;;5023929;28;20042;-74
2021/10/17 10:10:02;;;;;;;6.65;2.92;;;12.00;99.90;;;;;;5024806;28;20058;-75
2021/10/17 10:12:29;;;;;;;15.68;3.63;;;12.00;99.90;;;;;;5020895;28;20033;-75
2021/10/17 10:14:56;;;;;;;14.45;4.20;;;12.00;99.90;;;;;;5015047;28;20097;-75
2021/10/17 10:17:22;;;;;;;5.93;3.42;;;12.10;99.90;;;;;;5023422;28;20050;-73
2021/10/17 10:19:48;;;;;;;9.73;3.95;;;12.10;99.90;;;;;;5025362;28;20030;-74
2021/10/17 10:22:18;;;;;;;7.82;3.88;;;12.10;99.90;;;;;;5024229;28;20034;-73
2021/10/17 10:24:51;;;;;;;10.05;3.13;;;12.10;99.90;;;;;;5014755;28;20088;-74
2021/10/17 10:27:18;;;;;;;9.50;3.65;;;12.10;99.90;;;;;;5025974;28;20038;-73
2021/10/17 10:29:47;;;;;;;6.35;2.55;;;12.10;99.90;;;;;;5024881;28;20026;-74
2021/10/17 10:32:25;;;;;;;5.78;2.35;;;12.10;99.90;;;;;;5023782;28;20057;-73
2021/10/17 10:34:56;;;;;;;6.82;3.38;;;12.10;99.90;;;;;;5022747;28;20034;-75
2021/10/17 10:37:45;;;;;;;7.78;3.80;;;12.20;99.90;;;;;;5024221;28;20037;-74
2021/10/17 10:40:15;;;;;;;16.65;6.07;;;12.20;99.90;;;;;;5024735;28;20054;-73
2021/10/17 10:42:47;;;;;;;9.38;3.40;;;12.20;99.90;;;;;;5024547;28;20034;-74
2021/10/17 10:45:35;;;;;;;10.43;3.90;;;12.30;99.90;;;;;;5024976;28;20050;-74
2021/10/17 10:48:06;;;;;;;9.52;4.03;;;12.30;99.90;;;;;;5024960;28;20034;-73
2021/10/17 10:50:43;;;;;;;12.13;3.53;;;12.30;99.90;;;;;;5024430;28;20036;-74
2021/10/17 10:53:10;;;;;;;11.43;4.10;;;12.30;99.90;;;;;;5024541;28;20414;-75
2021/10/17 10:55:50;;;;;;;8.40;3.03;;;12.40;99.90;;;;;;5018418;28;20565;-73
2021/10/17 10:58:36;;;;;;;9.80;2.65;;;12.40;99.90;;;;;;5006836;28;20065;-74
2021/10/17 11:01:03;;;;;;;8.57;2.78;;;12.40;99.90;;;;;;5004806;28;20064;-73
2021/10/17 11:03:45;;;;;;;5.43;2.67;;;12.50;99.90;;;;;;5019564;28;20081;-76
2021/10/17 11:06:11;;;;;;;5.72;2.92;;;12.60;99.90;;;;;;5010667;28;20061;-74
2021/10/17 11:08:40;;;;;;;15.85;3.63;;;12.60;99.90;;;;;;5025425;28;20480;-74
2021/10/17 11:11:07;;;;;;;10.23;3.08;;;12.60;99.90;;;;;;5021882;28;20104;-74
2021/10/17 11:13:38;;;;;;;14.55;3.13;;;12.70;99.90;;;;;;5023549;28;20502;-74
2021/10/17 11:16:06;;;;;;;8.82;3.92;;;12.70;99.90;;;;;;5023117;28;20041;-73
2021/10/17 11:18:38;;;;;;;5.00;2.70;;;12.70;99.90;;;;;;5020085;28;20145;-74
2021/10/17 11:21:07;;;;;;;15.85;3.75;;;12.80;99.90;;;;;;5011568;28;20082;-75
2021/10/17 11:23:38;;;;;;;13.88;4.07;;;12.70;99.90;;;;;;5012015;28;20036;-73
2021/10/17 11:26:06;;;;;;;12.15;2.67;;;12.70;99.90;;;;;;5027771;28;20041;-74
2021/10/17 11:28:33;;;;;;;6.55;2.80;;;12.70;99.90;;;;;;5042899;28;20081;-74
2021/10/17 11:31:08;;;;;;;7.72;3.08;;;12.80;99.90;;;;;;5027982;28;20056;-72
2021/10/17 11:33:36;;;;;;;6.75;2.83;;;12.80;99.90;;;;;;5028310;28;20032;-74
2021/10/17 11:36:03;;;;;;;6.45;3.28;;;12.80;99.90;;;;;;5028280;28;20430;-74
2021/10/17 11:38:29;;;;;;;6.97;3.28;;;12.80;99.90;;;;;;5027022;28;20060;-75
2021/10/17 11:41:04;;;;;;;14.43;3.60;;;12.90;99.90;;;;;;5028015;28;20025;-73
2021/10/17 11:43:43;;;;;;;10.20;3.53;;;12.90;99.90;;;;;;5027749;28;20416;-74
2021/10/17 11:46:19;;;;;;;9.15;2.63;;;12.90;99.90;;;;;;5026190;28;20140;-75
2021/10/17 11:48:47;;;;;;;7.03;2.35;;;12.80;99.90;;;;;;5018570;28;20494;-76
2021/10/17 11:51:16;;;;;;;11.82;2.28;;;12.90;99.90;;;;;;5018816;28;20036;-74
2021/10/17 11:53:43;;;;;;;12.07;3.45;;;12.80;99.90;;;;;;5026245;28;20105;-74
2021/10/17 11:56:11;;;;;;;9.27;2.70;;;12.80;99.90;;;;;;5026712;28;20030;-73
2021/10/17 11:58:42;;;;;;;4.90;2.47;;;12.80;99.90;;;;;;5025373;28;20034;-73
2021/10/17 12:01:14;;;;;;;8.70;2.83;;;12.80;99.90;;;;;;5017263;28;20053;-74
2021/10/17 12:03:47;;;;;;;5.93;2.03;;;12.80;99.90;;;;;;5008167;28;20030;-74
2021/10/17 12:06:17;;;;;;;13.07;3.63;;;12.80;99.90;;;;;;5007414;28;20157;-73
2021/10/17 12:08:53;;;;;;;5.60;2.00;;;12.80;99.90;;;;;;5008427;28;20064;-73
2021/10/17 12:11:20;;;;;;;6.13;2.85;;;12.80;99.90;;;;;;5024437;28;20462;-73
2021/10/17 12:13:48;;;;;;;8.73;2.25;;;12.80;99.90;;;;;;5026496;28;20087;-73
2021/10/17 12:16:18;;;;;;;7.35;3.55;;;12.80;99.90;;;;;;5022471;28;20640;-73
2021/10/17 12:18:50;;;;;;;5.25;2.33;;;12.80;99.90;;;;;;5020692;28;20045;-74
2021/10/17 12:21:19;;;;;;;5.07;2.00;;;12.70;99.90;;;;;;5025036;28;20497;-71
2021/10/17 12:23:47;;;;;;;5.85;2.25;;;12.70;99.90;;;;;;5027547;28;20025;-74
2021/10/17 12:26:22;;;;;;;3.63;2.10;;;12.70;99.90;;;;;;5025561;28;20042;-72
2021/10/17 12:29:06;;;;;;;4.65;2.20;;;12.70;99.90;;;;;;5025871;28;20034;-73
2021/10/17 12:31:36;;;;;;;12.03;2.97;;;12.70;99.90;;;;;;5023543;28;20049;-73
2021/10/17 12:34:08;;;;;;;5.93;2.47;;;12.70;99.90;;;;;;5017489;28;20045;-73
2021/10/17 12:36:34;;;;;;;7.88;3.15;;;12.70;99.90;;;;;;5027528;28;20089;-74
2021/10/17 12:39:06;;;;;;;10.57;2.80;;;12.70;99.90;;;;;;5028150;28;20044;-74
2021/10/17 12:41:32;;;;;;;5.82;2.38;;;12.70;99.90;;;;;;5027476;28;20026;-73
2021/10/17 12:44:01;;;;;;;4.78;2.03;;;12.70;99.90;;;;;;5027322;28;20045;-74
2021/10/17 12:46:27;;;;;;;6.47;2.25;;;12.70;99.90;;;;;;5024974;28;20046;-74
2021/10/17 12:48:53;;;;;;;7.00;2.40;;;12.70;99.90;;;;;;5025464;28;20080;-72
2021/10/17 12:51:44;;;;;;;8.25;2.78;;;12.70;99.90;;;;;;5027104;28;20075;-73